Time;durP1;ratioP1;P1;durP2;ratioP2;P2;SDS_P1;SDS_P2;PMS_P1;PMS_P2;Temp;Humidity;BMP_temperature;BMP_pressure;BME280_temperature;BME280_humidity;BME280_pressure;Samples;Min_cycle;Max_cycle;Signal;HPM_P1;HPM_P2
2022/10/25 00:01:16;;;;;;;17.48;5.60;;;;;;;;;;6220346;23;20043;-72
2022/10/25 00:03:42;;;;;;;20.25;5.53;;;;;;;;;;6220228;23;20070;-72
2022/10/25 00:06:09;;;;;;;18.23;5.80;;;;;;;;;;6220261;23;20031;-72
2022/10/25 00:08:35;;;;;;;21.60;5.53;;;;;;;;;;6220148;23;20016;-72
2022/10/25 00:11:01;;;;;;;14.48;6.00;;;;;;;;;;6195117;23;20091;-72
2022/10/25 00:13:28;;;;;;;16.33;5.50;;;;;;;;;;6220167;23;20016;-73
2022/10/25 00:15:54;;;;;;;19.75;6.88;;;;;;;;;;6220034;23;20015;-73
2022/10/25 00:18:20;;;;;;;20.90;5.85;;;;;;;;;;6220175;23;20040;-72
2022/10/25 00:20:46;;;;;;;27.27;5.88;;;;;;;;;;6219984;23;20024;-72
2022/10/25 00:23:13;;;;;;;14.88;5.53;;;;;;;;;;6220182;23;20443;-73
2022/10/25 00:25:39;;;;;;;20.73;6.55;;;;;;;;;;6219848;23;20033;-72
2022/10/25 00:28:05;;;;;;;16.27;6.35;;;;;;;;;;6220098;23;20358;-72
2022/10/25 00:30:31;;;;;;;24.13;6.90;;;;;;;;;;6219766;23;20497;-72
2022/10/25 00:32:57;;;;;;;24.08;6.93;;;;;;;;;;6219758;23;20319;-72
2022/10/25 00:35:23;;;;;;;18.17;6.80;;;;;;;;;;6219759;23;20075;-73
2022/10/25 00:37:50;;;;;;;19.92;6.88;;;;;;;;;;6219724;23;20012;-72
2022/10/25 00:40:17;;;;;;;23.52;7.50;;;;;;;;;;6219875;23;20016;-72
2022/10/25 00:42:43;;;;;;;21.75;7.28;;;;;;;;;;6219899;23;20020;-72
2022/10/25 00:45:15;;;;;;;18.75;7.65;;;;;;;;;;6219729;23;20012;-72
2022/10/25 00:47:51;;;;;;;26.67;7.72;;;;;;;;;;6219644;23;20020;-72
2022/10/25 00:50:17;;;;;;;24.73;9.45;;;;;;;;;;6219527;23;20020;-72
2022/10/25 00:52:44;;;;;;;18.10;7.70;;;;;;;;;;6219625;23;20066;-72
2022/10/25 00:55:11;;;;;;;19.13;8.68;;;;;;;;;;6218340;23;20016;-72
2022/10/25 00:57:42;;;;;;;22.70;7.93;;;;;;;;;;6219769;23;20008;-72
2022/10/25 01:00:09;;;;;;;24.58;8.70;;;;;;;;;;6219639;23;20020;-72
2022/10/25 01:02:35;;;;;;;18.63;7.45;;;;;;;;;;6246456;23;20338;-73
2022/10/25 01:05:01;;;;;;;16.80;7.35;;;;;;;;;;6246545;23;20011;-73
2022/10/25 01:07:27;;;;;;;16.50;7.88;;;;;;;;;;6219582;23;20013;-72
2022/10/25 01:09:54;;;;;;;19.83;7.63;;;;;;;;;;6219307;23;20016;-73
2022/10/25 01:12:20;;;;;;;25.60;8.68;;;;;;;;;;6219297;23;20068;-73
2022/10/25 01:14:47;;;;;;;15.70;7.50;;;;;;;;;;6219585;23;20023;-73
2022/10/25 01:17:18;;;;;;;19.25;7.95;;;;;;;;;;6219649;23;20051;-73
2022/10/25 01:19:54;;;;;;;23.52;8.02;;;;;;;;;;6219562;23;20019;-73
2022/10/25 01:22:52;;;;;;;22.20;8.27;;;12.80;99.90;;;;;;6219627;23;20340;-73
2022/10/25 01:25:30;;;;;;;23.65;7.85;;;;;;;;;;6099474;23;20018;-73
2022/10/25 01:27:56;;;;;;;18.60;8.00;;;;;;;;;;6149935;23;20023;-73
2022/10/25 01:30:30;;;;;;;16.95;7.32;;;;;;;;;;6219343;23;20020;-73
2022/10/25 01:32:58;;;;;;;17.58;7.10;;;;;;;;;;6219364;23;20421;-73
2022/10/25 01:35:30;;;;;;;19.33;7.07;;;;;;;;;;6219395;23;20050;-73
2022/10/25 01:38:05;;;;;;;25.08;8.48;;;;;;;;;;6219157;23;20016;-73
2022/10/25 01:40:43;;;;;;;21.05;7.88;;;;;;;;;;6219374;23;20016;-73
2022/10/25 01:43:19;;;;;;;21.75;7.88;;;;;;;;;;6219261;23;20044;-73
2022/10/25 01:45:45;;;;;;;18.10;7.38;;;;;;;;;;6219338;23;20073;-73
2022/10/25 01:48:16;;;;;;;15.82;6.57;;;;;;;;;;6218927;23;20450;-73
2022/10/25 01:50:46;;;;;;;14.88;6.40;;;;;;;;;;6218751;23;20017;-73
2022/10/25 01:53:13;;;;;;;13.68;6.50;;;;;;;;;;6219342;23;20012;-73
2022/10/25 01:56:05;;;;;;;13.55;7.07;;;;;;;;;;6219175;23;20039;-73
2022/10/25 01:59:03;;;;;;;18.00;6.43;;;12.80;99.90;;;;;;6190016;23;20385;-73
2022/10/25 02:01:43;;;;;;;17.42;6.82;;;;;;;;;;6217900;23;20016;-73
2022/10/25 02:04:18;;;;;;;22.15;6.95;;;;;;;;;;6218929;23;20027;-73
2022/10/25 02:06:44;;;;;;;19.42;7.00;;;;;;;;;;6219003;23;20023;-73
2022/10/25 02:09:20;;;;;;;17.55;6.70;;;;;;;;;;6218961;23;20012;-73
2022/10/25 02:11:46;;;;;;;17.52;6.95;;;;;;;;;;6218799;23;20065;-74
2022/10/25 02:14:26;;;;;;;19.48;6.90;;;;;;;;;;6218880;23;20012;-73
2022/10/25 02:17:03;;;;;;;14.88;6.20;;;;;;;;;;6219009;23;20366;-73
2022/10/25 02:19:32;;;;;;;21.73;6.70;;;;;;;;;;6219095;23;20334;-73
2022/10/25 02:21:59;;;;;;;19.00;6.95;;;;;;;;;;6218932;23;20125;-73
2022/10/25 02:24:26;;;;;;;22.75;6.57;;;;;;;;;;6219017;23;20020;-70
2022/10/25 02:26:54;;;;;;;13.52;6.38;;;;;;;;;;6219053;23;20079;-71
2022/10/25 02:29:20;;;;;;;22.85;6.55;;;;;;;;;;6219240;23;20099;-70
2022/10/25 02:31:47;;;;;;;26.92;6.72;;;;;;;;;;6218983;23;20320;-71
2022/10/25 02:34:13;;;;;;;18.90;6.72;;;;;;;;;;6219094;23;20091;-71
2022/10/25 02:36:39;;;;;;;15.52;6.32;;;;;;;;;;6218974;23;20016;-70
2022/10/25 02:39:06;;;;;;;22.98;7.00;;;;;;;;;;6218962;23;20061;-70
2022/10/25 02:41:32;;;;;;;18.80;6.90;;;;;;;;;;6218695;23;20024;-70
2022/10/25 02:43:59;;;;;;;17.65;6.88;;;;;;;;;;6218770;23;20066;-71
2022/10/25 02:46:25;;;;;;;23.52;7.45;;;;;;;;;;6218462;23;20569;-70
2022/10/25 02:48:51;;;;;;;25.35;7.13;;;;;;;;;;6218669;23;20394;-70
2022/10/25 02:51:17;;;;;;;18.08;6.82;;;;;;;;;;6218564;23;20020;-70
2022/10/25 02:53:43;;;;;;;28.55;6.65;;;;;;;;;;6218693;23;20111;-71
2022/10/25 02:56:14;;;;;;;22.95;7.50;;;;;;;;;;6218824;23;20039;-71
2022/10/25 02:58:41;;;;;;;18.52;6.10;;;;;;;;;;6218572;23;20016;-71
2022/10/25 03:01:07;;;;;;;23.50;6.72;;;;;;;;;;6218141;23;20442;-71
2022/10/25 03:03:34;;;;;;;18.52;6.00;;;;;;;;;;6218469;23;20012;-71
2022/10/25 03:06:00;;;;;;;19.10;5.72;;;;;;;;;;6218226;23;20020;-70
2022/10/25 03:08:27;;;;;;;23.08;6.75;;;;;;;;;;6218272;23;20507;-71
2022/10/25 03:10:53;;;;;;;15.65;5.60;;;;;;;;;;6218468;23;20091;-70
2022/10/25 03:13:19;;;;;;;18.25;5.55;;;;;;;;;;6218289;23;20430;-70
2022/10/25 03:15:45;;;;;;;22.10;5.32;;;;;;;;;;6218611;23;20008;-71
2022/10/25 03:18:12;;;;;;;17.75;6.18;;;;;;;;;;6218431;23;20316;-70
2022/10/25 03:20:38;;;;;;;16.83;4.60;;;;;;;;;;6218560;23;20023;-71
2022/10/25 03:23:04;;;;;;;23.52;5.65;;;;;;;;;;6218543;23;20091;-70
2022/10/25 03:25:32;;;;;;;21.73;6.03;;;;;;;;;;6193537;23;20016;-71
2022/10/25 03:28:01;;;;;;;19.00;5.18;;;;;;;;;;6218302;23;20108;-70
2022/10/25 03:30:31;;;;;;;23.13;5.60;;;;;;;;;;6218160;23;20386;-70
2022/10/25 03:32:57;;;;;;;22.90;4.97;;;;;;;;;;6218414;23;20051;-70
2022/10/25 03:35:23;;;;;;;20.00;4.72;;;;;;;;;;6218478;23;20012;-71
2022/10/25 03:37:50;;;;;;;15.70;4.88;;;;;;;;;;6218560;23;20008;-70
2022/10/25 03:40:16;;;;;;;19.48;4.57;;;;;;;;;;6218595;23;20023;-72
2022/10/25 03:42:42;;;;;;;16.98;4.50;;;;;;;;;;6218470;23;20020;-72
2022/10/25 03:45:10;;;;;;;21.65;5.28;;;;;;;;;;6218432;23;20024;-72
2022/10/25 03:47:36;;;;;;;16.33;4.40;;;;;;;;;;6218130;23;20024;-72
2022/10/25 03:50:02;;;;;;;18.17;4.80;;;;;;;;;;6218178;23;20016;-72
2022/10/25 03:52:28;;;;;;;24.90;4.70;;;;;;;;;;6218202;23;20458;-73
2022/10/25 03:54:54;;;;;;;21.60;5.35;;;;;;;;;;6218449;23;20333;-73
2022/10/25 03:57:20;;;;;;;13.73;4.25;;;;;;;;;;6218264;23;20078;-73
2022/10/25 03:59:46;;;;;;;24.77;4.35;;;;;;;;;;6218313;23;20016;-73
2022/10/25 04:02:12;;;;;;;21.23;4.60;;;;;;;;;;6218314;23;20058;-73
2022/10/25 04:04:38;;;;;;;20.42;4.15;;;;;;;;;;6218590;23;20016;-73
2022/10/25 04:07:04;;;;;;;20.10;4.40;;;;;;;;;;6218213;23;20433;-73
2022/10/25 04:09:30;;;;;;;22.83;4.68;;;;;;;;;;6245148;22;20008;-73
2022/10/25 04:11:56;;;;;;;21.80;4.60;;;;;;;;;;6218524;23;20020;-73
2022/10/25 04:14:22;;;;;;;21.42;4.65;;;;;;;;;;6195139;23;20349;-73
2022/10/25 04:16:48;;;;;;;20.75;5.10;;;;;;;;;;6220130;23;20015;-73
2022/10/25 04:19:15;;;;;;;19.52;3.78;;;;;;;;;;6246761;23;20520;-72
2022/10/25 04:21:41;;;;;;;20.02;3.65;;;;;;;;;;6195106;23;20046;-73
2022/10/25 04:24:07;;;;;;;17.35;3.90;;;;;;;;;;6219799;23;20016;-73
2022/10/25 04:26:36;;;;;;;16.88;3.90;;;;;;;;;;6219938;23;20156;-73
2022/10/25 04:29:03;;;;;;;17.20;4.13;;;;;;;;;;6219619;23;20071;-73
2022/10/25 04:31:29;;;;;;;20.40;3.92;;;;;;;;;;6219862;23;20012;-73
2022/10/25 04:33:55;;;;;;;14.55;3.65;;;;;;;;;;6219639;23;20012;-73
2022/10/25 04:36:22;;;;;;;21.52;5.00;;;;;;;;;;6219577;23;20338;-73
2022/10/25 04:38:52;;;;;;;17.60;4.07;;;;;;;;;;6219535;23;20016;-73
2022/10/25 04:41:19;;;;;;;15.38;3.63;;;;;;;;;;6219899;23;20031;-73
2022/10/25 04:43:45;;;;;;;17.48;3.72;;;;;;;;;;6219353;23;20087;-73
2022/10/25 04:46:11;;;;;;;18.50;3.80;;;;;;;;;;6219500;23;20024;-73
2022/10/25 04:48:38;;;;;;;21.05;3.70;;;;;;;;;;6188323;23;20025;-73
2022/10/25 04:51:04;;;;;;;20.60;3.45;;;;;;;;;;6184683;23;20021;-73
2022/10/25 04:53:31;;;;;;;15.18;3.22;;;;;;;;;;6184550;23;20440;-73
2022/10/25 04:55:57;;;;;;;18.10;3.20;;;;;;;;;;6184757;23;20013;-73
2022/10/25 04:58:23;;;;;;;12.93;3.30;;;;;;;;;;6184518;23;20024;-73
2022/10/25 05:00:51;;;;;;;17.80;2.88;;;;;;;;;;6184741;23;20071;-73
2022/10/25 05:03:17;;;;;;;15.50;3.00;;;;;;;;;;6184471;23;20431;-72
2022/10/25 05:05:43;;;;;;;20.33;3.20;;;;;;;;;;6159736;23;20016;-72
2022/10/25 05:08:09;;;;;;;14.88;3.00;;;;;;;;;;6184555;23;20075;-73
2022/10/25 05:10:35;;;;;;;16.35;3.05;;;;;;;;;;6184287;23;20021;-73
2022/10/25 05:13:01;;;;;;;16.05;3.45;;;;;;;;;;6184382;23;20478;-73
2022/10/25 05:15:28;;;;;;;18.60;3.13;;;;;;;;;;6184285;23;20313;-73
2022/10/25 05:18:00;;;;;;;18.52;3.10;;;;;;;;;;6184517;23;20013;-73
2022/10/25 05:20:26;;;;;;;21.15;3.20;;;;;;;;;;6184367;23;20049;-72
2022/10/25 05:22:53;;;;;;;20.25;3.22;;;;;;;;;;6184481;23;20466;-72
2022/10/25 05:25:19;;;;;;;15.35;2.65;;;;;;;;;;6184023;23;20024;-72
2022/10/25 05:27:45;;;;;;;19.10;2.88;;;;;;;;;;6184423;23;20403;-73
2022/10/25 05:30:11;;;;;;;14.43;3.03;;;;;;;;;;6184205;23;20021;-73
2022/10/25 05:32:37;;;;;;;16.35;4.57;;;;;;;;;;6159615;23;20017;-73
2022/10/25 05:35:03;;;;;;;13.57;2.72;;;;;;;;;;6184348;23;20388;-73
2022/10/25 05:37:30;;;;;;;14.05;3.47;;;;;;;;;;6184242;23;20009;-72
2022/10/25 05:39:56;;;;;;;23.38;3.22;;;;;;;;;;6184294;23;20013;-72
2022/10/25 05:42:22;;;;;;;14.55;2.95;;;;;;;;;;6159387;23;20075;-72
2022/10/25 05:44:48;;;;;;;18.50;3.60;;;;;;;;;;6184245;23;20088;-72
2022/10/25 05:47:14;;;;;;;22.00;3.28;;;;;;;;;;6203244;23;20027;-73
2022/10/25 05:49:41;;;;;;;20.60;3.85;;;;;;;;;;6194024;23;20051;-73
2022/10/25 05:52:07;;;;;;;22.65;3.70;;;;;;;;;;6219249;23;20027;-73
2022/10/25 05:54:33;;;;;;;17.67;3.22;;;;;;;;;;6219194;23;20054;-73
2022/10/25 05:56:59;;;;;;;18.38;4.07;;;;;;;;;;6219147;23;20018;-72
2022/10/25 05:59:25;;;;;;;21.75;3.55;;;;;;;;;;6219087;23;20015;-73
2022/10/25 06:01:51;;;;;;;20.55;3.22;;;;;;;;;;6219160;23;20023;-72
2022/10/25 06:04:18;;;;;;;18.60;3.53;;;;;;;;;;6219230;23;20012;-72
2022/10/25 06:06:45;;;;;;;12.48;3.33;;;;;;;;;;6219055;23;20076;-72
2022/10/25 06:09:12;;;;;;;16.67;3.35;;;;;;;;;;6219085;23;20042;-73
2022/10/25 06:11:39;;;;;;;14.82;3.08;;;;;;;;;;6218940;23;20095;-73
2022/10/25 06:14:05;;;;;;;14.05;2.95;;;;;;;;;;6219042;23;20019;-73
2022/10/25 06:16:31;;;;;;;15.05;3.28;;;;;;;;;;6218843;23;20066;-73
2022/10/25 06:18:57;;;;;;;18.02;3.63;;;;;;;;;;6219009;23;20016;-73
2022/10/25 06:21:27;;;;;;;24.02;5.03;;;;;;;;;;6219006;23;20016;-73
2022/10/25 06:23:54;;;;;;;19.27;3.80;;;;;;;;;;6218821;23;20027;-73
2022/10/25 06:26:22;;;;;;;18.15;3.42;;;;;;;;;;6218717;23;20020;-73
2022/10/25 06:28:50;;;;;;;17.83;4.72;;;;;;;;;;6218535;23;20023;-73
2022/10/25 06:31:18;;;;;;;14.90;3.58;;;;;;;;;;6218882;23;20074;-73
2022/10/25 06:33:44;;;;;;;14.85;4.28;;;;;;;;;;6218878;23;20042;-73
2022/10/25 06:36:13;;;;;;;24.13;3.72;;;;;;;;;;6245528;23;20410;-73
2022/10/25 06:38:40;;;;;;;14.18;3.58;;;;;;;;;;6218866;23;20333;-73
2022/10/25 06:41:07;;;;;;;12.45;3.25;;;;;;;;;;6245423;23;20350;-73
2022/10/25 06:43:33;;;;;;;17.90;3.90;;;;;;;;;;6218648;23;20012;-73
2022/10/25 06:46:07;;;;;;;17.90;4.07;;;;;;;;;;6219012;23;20020;-73
2022/10/25 06:48:33;;;;;;;20.45;3.92;;;;;;;;;;6218626;23;20020;-73
2022/10/25 06:51:08;;;;;;;15.90;3.40;;;;;;;;;;6218630;23;20038;-73
2022/10/25 06:53:34;;;;;;;26.45;4.53;;;;;;;;;;6219220;23;20012;-73
2022/10/25 06:56:00;;;;;;;13.95;3.95;;;;;;;;;;6218873;23;20338;-73
2022/10/25 06:58:28;;;;;;;13.77;3.30;;;;;;;;;;6218936;23;20012;-73
2022/10/25 07:00:54;;;;;;;18.80;3.83;;;;;;;;;;6218948;23;20019;-73
2022/10/25 07:03:28;;;;;;;19.60;3.60;;;;;;;;;;6219251;23;20093;-72
2022/10/25 07:05:54;;;;;;;17.60;3.92;;;;;;;;;;6218436;23;20484;-73
2022/10/25 07:08:21;;;;;;;18.33;4.38;;;;;;;;;;6245688;22;20322;-73
2022/10/25 07:10:54;;;;;;;17.52;4.10;;;;;;;;;;6219067;23;20442;-73
2022/10/25 07:13:20;;;;;;;15.00;3.80;;;;;;;;;;6218687;23;20027;-73
2022/10/25 07:15:46;;;;;;;22.85;4.13;;;;;;;;;;6246239;23;20012;-73
2022/10/25 07:18:12;;;;;;;11.30;3.10;;;;;;;;;;6219155;23;20023;-73
2022/10/25 07:20:38;;;;;;;20.17;4.20;;;;;;;;;;6219029;23;20473;-73
2022/10/25 07:23:04;;;;;;;16.70;5.30;;;;;;;;;;6219021;23;20052;-73
2022/10/25 07:25:30;;;;;;;24.40;5.05;;;;;;;;;;6219057;23;20047;-73
2022/10/25 07:27:57;;;;;;;19.98;4.18;;;;;;;;;;6218736;23;20069;-73
2022/10/25 07:30:23;;;;;;;16.92;4.05;;;;;;;;;;6245246;23;20434;-70
2022/10/25 07:32:49;;;;;;;22.70;4.82;;;;;;;;;;6218929;23;20016;-70
2022/10/25 07:35:15;;;;;;;20.73;4.20;;;;;;;;;;6218800;23;20008;-72
2022/10/25 07:37:41;;;;;;;18.10;4.10;;;;;;;;;;6219761;23;20022;-73
2022/10/25 07:40:07;;;;;;;16.23;4.10;;;;;;;;;;6220623;23;20023;-73
2022/10/25 07:42:33;;;;;;;11.73;3.97;;;;;;;;;;6247446;23;20342;-73
2022/10/25 07:44:59;;;;;;;17.73;3.70;;;;;;;;;;6219285;23;20052;-73
2022/10/25 07:47:25;;;;;;;16.88;4.05;;;;;;;;;;6220049;23;20020;-73
2022/10/25 07:49:51;;;;;;;20.67;4.10;;;;;;;;;;6221088;23;20012;-73
2022/10/25 07:52:19;;;;;;;17.27;3.80;;;;;;;;;;6195230;23;20026;-72
2022/10/25 07:54:45;;;;;;;26.85;5.10;;;;;;;;;;6220654;23;20019;-72
2022/10/25 07:57:11;;;;;;;18.70;5.25;;;;;;;;;;6220992;23;20067;-72
2022/10/25 07:59:37;;;;;;;21.55;4.60;;;;;;;;;;6220899;23;20485;-72
2022/10/25 08:02:03;;;;;;;23.95;5.30;;;;;;;;;;6220797;23;20314;-72
2022/10/25 08:04:31;;;;;;;16.52;4.50;;;;;;;;;;6195943;23;20046;-72
2022/10/25 08:07:00;;;;;;;20.17;4.20;;;;;;;;;;6220787;23;20016;-72
2022/10/25 08:09:27;;;;;;;24.63;5.28;;;;;;;;;;6220638;23;20078;-72
2022/10/25 08:11:53;;;;;;;11.23;3.65;;;;;;;;;;6220498;23;20016;-72
2022/10/25 08:14:19;;;;;;;17.23;3.55;;;;;;;;;;6220682;23;20019;-72
2022/10/25 08:16:45;;;;;;;16.35;4.80;;;;;;;;;;6195847;23;20087;-73
2022/10/25 08:19:11;;;;;;;22.05;3.95;;;;;;;;;;6220731;23;20083;-73
2022/10/25 08:21:37;;;;;;;20.65;3.83;;;;;;;;;;6220377;23;20012;-73
2022/10/25 08:24:03;;;;;;;15.48;3.40;;;;;;;;;;6220619;23;20492;-72
2022/10/25 08:26:30;;;;;;;16.23;4.72;;;;;;;;;;6220462;23;20016;-72
2022/10/25 08:28:56;;;;;;;22.65;4.90;;;;;;;;;;6220609;23;20446;-72
2022/10/25 08:31:22;;;;;;;12.20;3.20;;;;;;;;;;6220449;23;20020;-72
2022/10/25 08:33:48;;;;;;;15.73;3.75;;;;;;;;;;6220207;23;20012;-72
2022/10/25 08:36:14;;;;;;;21.52;4.32;;;;;;;;;;6220276;23;20390;-73
2022/10/25 08:38:40;;;;;;;18.02;4.65;;;;;;;;;;6220201;23;20051;-72
2022/10/25 08:41:10;;;;;;;18.10;5.15;;;;;;;;;;6195447;23;20019;-72
2022/10/25 08:43:55;;;;;;;16.30;3.03;;;;;;;;;;6220900;23;20023;-72
2022/10/25 08:46:37;;;;;;;19.02;3.63;;;;;;;;;;6220632;23;20142;-72
2022/10/25 08:49:17;;;;;;;11.77;3.13;;;;;;;;;;6220290;23;20490;-69
2022/10/25 08:51:46;;;;;;;14.77;3.63;;;;;;;;;;6220293;23;20022;-70
2022/10/25 08:54:15;;;;;;;17.30;3.65;;;;;;;;;;6220232;23;20454;-69
2022/10/25 08:56:41;;;;;;;14.63;3.78;;;;;;;;;;6247220;23;20066;-69
2022/10/25 08:59:09;;;;;;;11.95;2.92;;;;;;;;;;6247245;23;20094;-70
2022/10/25 09:01:35;;;;;;;19.67;3.03;;;;;;;;;;6221017;23;20012;-69
2022/10/25 09:04:01;;;;;;;17.83;3.72;;;;;;;;;;6220427;23;20066;-69
2022/10/25 09:06:47;;;;;;;16.73;3.97;;;;;;;;;;6220337;23;20016;-70
2022/10/25 09:09:25;;;;;;;16.25;3.95;;;;;;;;;;6220213;23;20019;-69
2022/10/25 09:11:54;;;;;;;9.75;2.85;;;;;;;;;;6219950;23;20012;-70
2022/10/25 09:14:23;;;;;;;16.55;2.85;;;;;;;;;;6220191;23;20018;-69
2022/10/25 09:16:51;;;;;;;14.77;2.53;;;;;;;;;;6220108;23;20012;-69
2022/10/25 09:19:29;;;;;;;19.27;3.75;;;;;;;;;;6220034;23;20044;-70
2022/10/25 09:22:00;;;;;;;13.38;2.78;;;;;;;;;;6220113;23;20023;-70
2022/10/25 09:24:29;;;;;;;13.93;3.00;;;;;;;;;;6220284;23;20069;-69
2022/10/25 09:27:13;;;;;;;13.75;3.00;;;;;;;;;;6220138;23;20091;-69
2022/10/25 09:29:46;;;;;;;13.82;2.95;;;;;;;;;;6220199;23;20020;-70
2022/10/25 09:32:25;;;;;;;20.20;3.13;;;;;;;;;;6220012;23;20016;-70
2022/10/25 09:34:52;;;;;;;8.52;2.63;;;;;;;;;;6220107;23;20027;-70
2022/10/25 09:37:31;;;;;;;11.98;2.40;;;;;;;;;;6219952;23;20438;-70
2022/10/25 09:40:04;;;;;;;11.32;2.38;;;;;;;;;;6219890;23;20008;-70
2022/10/25 09:42:42;;;;;;;14.38;2.72;;;;;;;;;;6220026;23;20052;-70
2022/10/25 09:45:15;;;;;;;12.75;2.53;;;;;;;;;;6219912;23;20075;-70
2022/10/25 09:48:00;;;;;;;11.93;2.47;;;;;;;;;;6203315;23;20068;-70
2022/10/25 09:50:31;;;;;;;9.00;2.33;;;;;;;;;;6184728;23;20111;-70
2022/10/25 09:53:01;;;;;;;12.57;2.03;;;;;;;;;;6184828;23;20321;-70
2022/10/25 09:55:39;;;;;;;10.82;2.08;;;;;;;;;;6186174;23;20017;-70
2022/10/25 09:58:06;;;;;;;9.65;1.95;;;;;;;;;;6184649;23;20028;-70
2022/10/25 10:00:33;;;;;;;12.25;2.20;;;;;;;;;;6184673;23;20092;-70
2022/10/25 10:02:59;;;;;;;12.38;2.45;;;;;;;;;;6160120;23;20091;-70
2022/10/25 10:05:25;;;;;;;10.13;2.30;;;;;;;;;;6184747;23;20525;-70
2022/10/25 10:07:53;;;;;;;6.95;1.70;;;;;;;;;;6184442;23;20016;-70
2022/10/25 10:10:22;;;;;;;12.40;1.90;;;;;;;;;;6184148;23;20013;-70
2022/10/25 10:13:00;;;;;;;12.48;2.42;;;;;;;;;;6185954;23;20048;-70
2022/10/25 10:15:29;;;;;;;13.13;2.35;;;;;;;;;;6159805;23;20025;-70
2022/10/25 10:18:14;;;;;;;12.48;2.22;;;;;;;;;;6184621;23;20016;-70
2022/10/25 10:20:54;;;;;;;17.38;2.28;;;;;;;;;;6184475;23;20012;-70
2022/10/25 10:23:20;;;;;;;15.90;2.72;;;;;;;;;;6184578;23;20447;-70
2022/10/25 10:25:47;;;;;;;8.23;1.95;;;;;;;;;;6184415;23;20047;-70
2022/10/25 10:28:14;;;;;;;18.52;2.30;;;;;;;;;;6184358;23;20053;-70
2022/10/25 10:30:41;;;;;;;11.18;2.10;;;;;;;;;;6184330;23;20044;-69
2022/10/25 10:33:15;;;;;;;11.55;2.45;;;;;;;;;;6184311;23;20095;-70
2022/10/25 10:35:41;;;;;;;12.82;2.83;;;;;;;;;;6184258;23;20013;-70
2022/10/25 10:38:19;;;;;;;16.08;2.88;;;;;;;;;;6184291;23;20509;-70
2022/10/25 10:40:45;;;;;;;12.32;2.40;;;;;;;;;;6185772;23;20092;-70
2022/10/25 10:43:27;;;;;;;12.05;2.47;;;;;;;;;;6184267;23;20017;-70
2022/10/25 10:45:54;;;;;;;13.35;2.42;;;;;;;;;;6184298;23;20020;-70
2022/10/25 10:48:22;;;;;;;16.60;2.85;;;;;;;;;;6208261;23;20078;-70
2022/10/25 10:50:49;;;;;;;21.98;3.58;;;;;;;;;;6219103;23;20063;-70
2022/10/25 10:53:21;;;;;;;15.23;3.50;;;;;;;;;;6219093;23;20442;-70
2022/10/25 10:55:53;;;;;;;11.60;2.50;;;;;;;;;;6219323;23;20079;-70
2022/10/25 10:58:33;;;;;;;21.45;3.55;;;;;;;;;;6219053;23;20239;-73
2022/10/25 11:01:05;;;;;;;13.27;2.90;;;;;;;;;;6219034;23;20016;-70
2022/10/25 11:03:44;;;;;;;18.48;3.05;;;;;;;;;;6219046;23;20023;-70
2022/10/25 11:06:26;;;;;;;12.43;3.70;;;;;;;;;;6219150;23;20523;-70
2022/10/25 11:09:11;;;;;;;12.45;2.33;;;14.80;99.90;;;;;;6218873;23;20035;-72
2022/10/25 11:11:38;;;;;;;22.20;3.72;;;;;;;;;;6219022;23;20023;-70
2022/10/25 11:14:14;;;;;;;15.95;3.28;;;;;;;;;;6219069;23;20016;-70
2022/10/25 11:16:40;;;;;;;13.90;3.70;;;;;;;;;;6218878;23;20016;-71
2022/10/25 11:19:18;;;;;;;11.70;2.38;;;;;;;;;;6245591;23;20023;-71
2022/10/25 11:22:03;;;;;;;12.32;2.53;;;;;;;;;;6218722;23;20016;-71
2022/10/25 11:24:45;;;;;;;15.27;2.72;;;;;;;;;;6221147;23;20069;-72
2022/10/25 11:27:17;;;;;;;13.07;2.08;;;;;;;;;;6221351;23;20026;-72
2022/10/25 11:29:50;;;;;;;12.02;2.03;;;;;;;;;;6221059;23;20020;-72
2022/10/25 11:32:16;;;;;;;10.20;1.88;;;;;;;;;;6221032;23;20439;-73
2022/10/25 11:34:54;;;;;;;10.25;1.95;;;;;;;;;;6220840;23;20008;-72
2022/10/25 11:37:26;;;;;;;12.20;2.65;;;;;;;;;;6246844;23;20066;-72
2022/10/25 11:39:58;;;;;;;16.80;1.85;;;;;;;;;;6220995;23;20023;-72
2022/10/25 11:42:24;;;;;;;13.23;1.77;;;;;;;;;;6221102;23;20027;-72
2022/10/25 11:45:03;;;;;;;9.40;1.70;;;;;;;;;;6220907;23;20023;-73
2022/10/25 11:47:40;;;;;;;11.77;1.90;;;;;;;;;;6220682;23;20026;-72
2022/10/25 11:50:09;;;;;;;14.10;2.10;;;;;;;;;;6219337;23;20016;-72
2022/10/25 11:52:59;;;;;;;12.27;2.17;;;15.90;99.90;;;;;;6220154;23;20008;-72
2022/10/25 11:55:40;;;;;;;7.20;2.05;;;;;;;;;;6220919;23;20012;-72
2022/10/25 11:58:30;;;;;;;10.50;1.77;;;15.60;99.90;;;;;;6220967;23;20488;-72
2022/10/25 12:00:56;;;;;;;17.20;2.88;;;;;;;;;;6195748;23;20047;-72
2022/10/25 12:03:49;;;;;;;11.73;2.65;;;;;;;;;;6220838;23;20016;-72
2022/10/25 12:06:23;;;;;;;6.45;1.70;;;15.80;99.90;;;;;;6215501;23;20537;-72
2022/10/25 12:08:49;;;;;;;7.60;1.73;;;;;;;;;;6195686;23;20020;-73
2022/10/25 12:11:20;;;;;;;7.00;1.35;;;;;;;;;;6220749;23;20016;-73
2022/10/25 12:13:54;;;;;;;14.38;1.63;;;;;;;;;;6220801;23;20016;-72
2022/10/25 12:16:23;;;;;;;10.07;1.70;;;15.60;99.90;;;;;;6220683;23;20149;-72
2022/10/25 12:18:50;;;;;;;7.47;1.50;;;;;;;;;;6220823;23;20105;-72
2022/10/25 12:21:29;;;;;;;9.05;2.28;;;;;;;;;;6220667;23;20319;-72
2022/10/25 12:23:56;;;;;;;7.00;2.53;;;;;;;;;;6220687;23;20020;-72
2022/10/25 12:26:28;;;;;;;17.38;3.05;;;;;;;;;;6221061;23;20020;-72
2022/10/25 12:28:55;;;;;;;11.30;2.53;;;;;;;;;;6220690;23;20074;-72
2022/10/25 12:31:25;;;;;;;12.10;3.22;;;;;;;;;;6220559;23;20016;-72
2022/10/25 12:33:54;;;;;;;16.55;3.50;;;;;;;;;;6220541;23;20012;-72
2022/10/25 12:36:20;;;;;;;13.23;3.47;;;;;;;;;;6220774;23;20016;-72
2022/10/25 12:38:46;;;;;;;15.35;2.80;;;;;;;;;;6222021;23;20008;-72
2022/10/25 12:41:17;;;;;;;19.10;3.28;;;;;;;;;;6221660;23;20020;-72
2022/10/25 12:43:48;;;;;;;11.85;2.05;;;;;;;;;;6221888;23;20018;-72
2022/10/25 12:46:23;;;;;;;9.75;2.40;;;;;;;;;;6222290;23;20020;-72
2022/10/25 12:49:06;;;;;;;12.93;2.05;;;;;;;;;;6223398;23;20028;-72
2022/10/25 12:51:51;;;;;;;8.82;2.97;;;;;;;;;;6221077;23;20024;-72
2022/10/25 12:54:29;;;;;;;11.85;1.50;;;;;;;;;;6220760;23;20040;-72
2022/10/25 12:57:04;;;;;;;9.32;1.40;;;;;;;;;;6221253;23;20012;-73
2022/10/25 12:59:37;;;;;;;8.93;1.80;;;;;;;;;;6220572;23;20087;-73
2022/10/25 13:02:38;;;;;;;10.95;1.60;;;16.80;99.90;;;;;;6220546;23;20447;-72
2022/10/25 13:05:23;;;;;;;12.82;1.60;;;;;;;;;;6220406;23;20052;-73
2022/10/25 13:07:49;;;;;;;9.35;2.40;;;;;;;;;;6220334;22;20393;-72
2022/10/25 13:10:17;;;;;;;10.10;1.63;;;;;;;;;;6220350;23;20023;-72
2022/10/25 13:12:57;;;;;;;17.42;2.30;;;;;;;;;;6220201;23;20087;-72
2022/10/25 13:15:23;;;;;;;12.70;2.15;;;;;;;;;;6220274;23;20012;-72
2022/10/25 13:18:10;;;;;;;14.13;2.25;;;;;;;;;;6220219;23;20008;-72
2022/10/25 13:20:36;;;;;;;8.80;2.08;;;;;;;;;;6220063;23;20043;-72
2022/10/25 13:23:22;;;;;;;16.00;2.85;;;;;;;;;;6220094;23;20069;-72
2022/10/25 13:25:48;;;;;;;10.15;2.10;;;;;;;;;;6220108;23;20012;-72
2022/10/25 13:28:14;;;;;;;10.55;2.40;;;;;;;;;;6246975;23;20016;-72
2022/10/25 13:30:40;;;;;;;10.63;2.25;;;;;;;;;;6219800;23;20099;-72
2022/10/25 13:33:21;;;;;;;10.43;1.90;;;;;;;;;;6220048;23;20070;-72
2022/10/25 13:35:50;;;;;;;8.32;2.78;;;;;;;;;;6219952;23;20046;-73
2022/10/25 13:38:20;;;;;;;9.45;2.80;;;;;;;;;;6219929;23;20008;-72
2022/10/25 13:41:06;;;;;;;10.93;3.60;;;17.90;99.90;;;;;;6246861;23;20406;-72
2022/10/25 13:43:33;;;;;;;12.85;4.20;;;;;;;;;;6199013;23;20438;-72
2022/10/25 13:45:59;;;;;;;8.77;2.85;;;;;;;;;;6219468;23;20343;-72
2022/10/25 13:48:34;;;;;;;7.70;2.55;;;;;;;;;;6219722;23;20162;-72
2022/10/25 13:51:10;;;;;;;10.45;2.70;;;;;;;;;;6219693;23;20105;-73
2022/10/25 13:53:38;;;;;;;11.80;2.63;;;;;;;;;;6219802;23;20016;-73
2022/10/25 13:56:06;;;;;;;7.65;2.40;;;;;;;;;;6219931;23;20030;-73
2022/10/25 13:58:32;;;;;;;13.05;2.80;;;;;;;;;;6219803;23;20016;-73
2022/10/25 14:01:17;;;;;;;9.43;2.78;;;;;;;;;;6219818;23;20020;-72
2022/10/25 14:03:49;;;;;;;11.40;3.13;;;;;;;;;;6219648;23;20016;-72
2022/10/25 14:06:26;;;;;;;11.80;4.05;;;;;;;;;;6219641;23;20020;-73
2022/10/25 14:09:08;;;;;;;13.48;4.85;;;;;;;;;;6219542;23;20418;-73
2022/10/25 14:11:52;;;;;;;12.48;4.30;;;;;;;;;;6219586;23;20016;-72
2022/10/25 14:14:22;;;;;;;15.55;5.10;;;;;;;;;;6219737;23;20008;-72
2022/10/25 14:17:06;;;;;;;12.02;4.90;;;;;;;;;;6219585;23;20012;-72
2022/10/25 14:19:44;;;;;;;9.43;4.72;;;;;;;;;;6219722;23;20015;-73
2022/10/25 14:22:14;;;;;;;12.30;4.50;;;;;;;;;;6219632;23;20024;-73
2022/10/25 14:24:40;;;;;;;11.48;5.03;;;;;;;;;;6219704;23;20024;-73
2022/10/25 14:27:24;;;;;;;14.43;5.00;;;;;;;;;;6219606;23;20023;-72
2022/10/25 14:29:50;;;;;;;14.40;5.05;;;;;;;;;;6219372;23;20074;-73
2022/10/25 14:32:19;;;;;;;15.77;5.85;;;;;;;;;;6219371;23;20476;-72
2022/10/25 14:34:50;;;;;;;9.35;5.68;;;16.90;99.90;;;;;;6219433;23;20012;-72
2022/10/25 14:37:16;;;;;;;17.92;6.03;;;;;;;;;;6219412;23;20012;-73
2022/10/25 14:39:52;;;;;;;14.18;5.22;;;;;;;;;;6219344;23;20043;-73
2022/10/25 14:42:18;;;;;;;18.13;5.32;;;;;;;;;;6219206;23;20022;-72
2022/10/25 14:44:45;;;;;;;14.65;5.43;;;;;;;;;;6219421;23;20091;-72